createdAt,value
2023-03-22T00:00:15.570Z,98495.19
2023-03-22T00:03:03.830Z,98490.84
2023-03-22T00:05:31.359Z,98485.22
2023-03-22T00:07:59.066Z,98481.50
2023-03-22T00:10:29.166Z,98477.13
2023-03-22T00:12:56.177Z,98483.94
2023-03-22T00:15:23.837Z,98469.94
2023-03-22T00:17:50.718Z,98467.72
2023-03-22T00:20:20.895Z,98467.66
2023-03-22T00:22:48.286Z,98466.34
2023-03-22T00:25:16.070Z,98467.69
2023-03-22T00:27:43.333Z,98465.19
2023-03-22T00:30:11.786Z,98459.16
2023-03-22T00:32:39.398Z,98458.19
2023-03-22T00:35:07.624Z,98458.03
2023-03-22T00:37:38.689Z,98455.78
2023-03-22T00:40:11.542Z,98453.84
2023-03-22T00:42:40.419Z,98457.38
2023-03-22T00:45:09.613Z,98465.84
2023-03-22T00:47:36.812Z,98464.09
2023-03-22T00:50:05.258Z,98454.75
2023-03-22T00:52:32.879Z,98450.66
2023-03-22T00:55:00.297Z,98450.38
2023-03-22T00:57:27.418Z,98444.41
2023-03-22T00:59:55.948Z,98443.75
2023-03-22T01:02:29.683Z,98438.16
2023-03-22T01:04:57.378Z,98434.88
2023-03-22T01:07:25.331Z,98437.03
2023-03-22T01:09:52.724Z,98438.28
2023-03-22T01:12:20.443Z,98444.38
2023-03-22T01:14:47.628Z,98444.84
2023-03-22T01:17:15.573Z,98438.25
2023-03-22T01:19:42.853Z,98439.94
2023-03-22T01:22:10.197Z,98436.28
2023-03-22T01:24:37.406Z,98438.78
2023-03-22T01:27:04.601Z,98429.78
2023-03-22T01:29:31.765Z,98419.34
2023-03-22T01:31:59.218Z,98411.47
2023-03-22T01:34:27.411Z,98409.47
2023-03-22T01:36:54.806Z,98411.03
2023-03-22T01:39:21.939Z,98399.31
2023-03-22T01:41:49.472Z,98391.81
2023-03-22T01:44:19.093Z,98389.91
2023-03-22T01:46:48.577Z,98390.00
2023-03-22T01:49:23.423Z,98386.84
2023-03-22T01:51:52.335Z,98378.69
2023-03-22T01:54:43.002Z,98376.53
2023-03-22T01:57:10.908Z,98384.50
2023-03-22T01:59:39.132Z,98384.88
2023-03-22T02:02:07.002Z,98379.13
2023-03-22T02:04:38.481Z,98377.50
2023-03-22T02:07:10.320Z,98376.09
2023-03-22T02:09:41.570Z,98371.19
2023-03-22T02:12:13.399Z,98381.50
2023-03-22T02:14:59.207Z,98377.50
2023-03-22T02:18:06.419Z,98378.31
2023-03-22T02:20:42.400Z,98382.50
2023-03-22T02:23:45.056Z,98390.00
2023-03-22T02:26:24.108Z,98398.25
2023-03-22T02:29:45.238Z,98387.94
2023-03-22T02:32:34.242Z,98389.50
2023-03-22T02:35:13.723Z,98384.94
2023-03-22T02:37:48.084Z,98392.28
2023-03-22T02:40:29.461Z,98387.75
2023-03-22T02:43:25.979Z,98392.22
2023-03-22T02:46:22.520Z,98388.31
2023-03-22T02:49:01.868Z,98393.34
2023-03-22T02:51:37.951Z,98384.50
2023-03-22T02:54:18.981Z,98381.22
2023-03-22T02:57:36.107Z,98379.75
2023-03-22T03:00:10.923Z,98378.69
2023-03-22T03:02:45.352Z,98383.88
2023-03-22T03:05:13.695Z,98377.81
2023-03-22T03:07:44.828Z,98390.75
2023-03-22T03:10:14.651Z,98373.22
2023-03-22T03:12:41.983Z,98377.56
2023-03-22T03:15:27.197Z,98376.09
2023-03-22T03:18:05.862Z,98373.22
2023-03-22T03:20:49.549Z,98375.25
2023-03-22T03:23:24.595Z,98378.63
2023-03-22T03:25:59.313Z,98373.19
2023-03-22T03:28:39.146Z,98383.47
2023-03-22T03:31:14.990Z,98374.22
2023-03-22T03:33:49.312Z,98381.38
2023-03-22T03:36:18.200Z,98382.81
2023-03-22T03:38:50.145Z,98374.81
2023-03-22T03:41:20.878Z,98375.44
2023-03-22T03:43:49.165Z,98377.28
2023-03-22T03:46:16.429Z,98378.44
2023-03-22T03:48:47.547Z,98376.03
2023-03-22T03:51:14.418Z,98378.63
2023-03-22T03:53:41.948Z,98377.88
2023-03-22T03:56:09.592Z,98387.84
2023-03-22T03:58:39.203Z,98383.00
2023-03-22T04:01:06.493Z,98382.66
2023-03-22T04:03:33.874Z,98383.75
2023-03-22T04:06:01.148Z,98391.06
2023-03-22T04:08:28.357Z,98390.88
2023-03-22T04:10:55.593Z,98386.09
2023-03-22T04:13:24.821Z,98409.97
2023-03-22T04:15:57.549Z,98405.00
2023-03-22T04:18:25.005Z,98404.03
2023-03-22T04:20:53.736Z,98401.06
2023-03-22T04:23:25.728Z,98401.28
2023-03-22T04:25:54.101Z,98402.72
2023-03-22T04:28:21.878Z,98397.06
2023-03-22T04:30:52.575Z,98400.19
2023-03-22T04:33:23.178Z,98408.56
2023-03-22T04:35:50.732Z,98403.75
2023-03-22T04:38:18.445Z,98403.56
2023-03-22T04:40:46.876Z,98393.78
2023-03-22T04:43:15.802Z,98382.59
2023-03-22T04:45:42.788Z,98379.88
2023-03-22T04:48:11.394Z,98381.31
2023-03-22T04:50:40.394Z,98388.66
2023-03-22T04:53:08.394Z,98400.69
2023-03-22T04:55:35.519Z,98403.50
2023-03-22T04:58:03.888Z,98398.97
2023-03-22T05:00:30.935Z,98399.56
2023-03-22T05:02:58.741Z,98389.72
2023-03-22T05:05:25.862Z,98399.50
2023-03-22T05:07:53.172Z,98384.19
2023-03-22T05:10:20.498Z,98386.72
2023-03-22T05:12:48.178Z,98388.06
2023-03-22T05:15:15.276Z,98388.63
2023-03-22T05:17:42.631Z,98391.47
2023-03-22T05:20:10.329Z,98382.50
2023-03-22T05:22:41.352Z,98378.47
2023-03-22T05:25:10.407Z,98392.56
2023-03-22T05:27:39.121Z,98391.06
2023-03-22T05:30:07.518Z,98398.38
2023-03-22T05:32:37.681Z,98391.72
2023-03-22T05:35:05.518Z,98388.81
2023-03-22T05:37:34.059Z,98384.78
2023-03-22T05:40:01.284Z,98397.78
2023-03-22T05:42:28.662Z,98395.28
2023-03-22T05:44:55.675Z,98393.97
2023-03-22T05:47:23.149Z,98385.19
2023-03-22T05:49:50.666Z,98387.66
2023-03-22T05:52:20.589Z,98393.66
2023-03-22T05:54:47.859Z,98385.66
2023-03-22T05:57:15.156Z,98389.03
2023-03-22T05:59:42.322Z,98385.91
2023-03-22T06:02:09.793Z,98376.53
2023-03-22T06:04:37.798Z,98384.06
2023-03-22T06:07:05.001Z,98389.41
2023-03-22T06:09:32.679Z,98387.19
2023-03-22T06:12:02.363Z,98393.28
2023-03-22T06:14:29.526Z,98400.78
2023-03-22T06:16:57.607Z,98399.50
2023-03-22T06:19:25.763Z,98411.16
2023-03-22T06:21:54.767Z,98404.09
2023-03-22T06:24:21.993Z,98404.59
2023-03-22T06:26:49.274Z,98402.84
2023-03-22T06:29:16.220Z,98397.97
2023-03-22T06:31:44.129Z,98393.81
2023-03-22T06:34:11.161Z,98392.97
2023-03-22T06:36:38.832Z,98395.50
2023-03-22T06:39:06.088Z,98398.72
2023-03-22T06:41:33.462Z,98394.44
2023-03-22T06:44:00.953Z,98393.59
2023-03-22T06:46:28.811Z,98395.47
2023-03-22T06:48:55.937Z,98394.91
2023-03-22T06:51:23.358Z,98399.78
2023-03-22T06:53:50.791Z,98395.31
2023-03-22T06:56:18.136Z,98404.03
2023-03-22T06:58:45.173Z,98403.25
2023-03-22T07:01:12.699Z,98399.56
2023-03-22T07:03:39.820Z,98396.97
2023-03-22T07:06:08.599Z,98407.25
2023-03-22T07:08:37.205Z,98401.03
2023-03-22T07:11:05.718Z,98407.16
2023-03-22T07:13:33.034Z,98400.84
2023-03-22T07:16:01.925Z,98403.81
2023-03-22T07:18:29.759Z,98401.69
2023-03-22T07:20:57.079Z,98394.22
2023-03-22T07:23:24.218Z,98393.81
2023-03-22T07:25:52.205Z,98392.44
2023-03-22T07:28:19.261Z,98393.22
2023-03-22T07:30:46.508Z,98394.13
2023-03-22T07:33:13.368Z,98395.78
2023-03-22T07:35:40.897Z,98402.53
2023-03-22T07:38:08.001Z,98392.22
2023-03-22T07:40:35.823Z,98390.56
2023-03-22T07:43:04.833Z,98390.66
2023-03-22T07:45:32.211Z,98391.38
2023-03-22T07:47:59.654Z,98382.63
2023-03-22T07:50:26.980Z,98391.88
2023-03-22T07:52:54.358Z,98387.22
2023-03-22T07:55:22.149Z,98383.59
2023-03-22T07:57:49.298Z,98386.09
2023-03-22T08:00:17.380Z,98391.63
2023-03-22T08:02:47.225Z,98386.94
2023-03-22T08:05:14.633Z,98382.22
2023-03-22T08:07:42.437Z,98381.13
2023-03-22T08:10:10.173Z,98378.28
2023-03-22T08:12:37.082Z,98380.97
2023-03-22T08:15:06.256Z,98378.34
2023-03-22T08:17:33.316Z,98381.78
2023-03-22T08:20:03.472Z,98377.16
2023-03-22T08:22:30.740Z,98379.22
2023-03-22T08:24:57.945Z,98378.03
2023-03-22T08:27:25.011Z,98367.56
2023-03-22T08:29:53.813Z,98370.38
2023-03-22T08:32:20.915Z,98369.78
2023-03-22T08:34:48.397Z,98370.56
2023-03-22T08:37:16.252Z,98375.41
2023-03-22T08:39:43.854Z,98376.88
2023-03-22T08:42:11.186Z,98375.50
2023-03-22T08:44:39.255Z,98378.00
2023-03-22T08:47:06.134Z,98375.56
2023-03-22T08:49:33.820Z,98376.41
2023-03-22T08:52:01.130Z,98374.97
2023-03-22T08:54:33.532Z,98387.69
2023-03-22T08:57:01.010Z,98391.00
2023-03-22T08:59:29.703Z,98381.94
2023-03-22T09:01:56.844Z,98374.78
2023-03-22T09:04:24.443Z,98375.28
2023-03-22T09:06:51.577Z,98372.66
2023-03-22T09:09:18.805Z,98373.31
2023-03-22T09:11:45.748Z,98377.81
2023-03-22T09:14:13.378Z,98372.28
2023-03-22T09:16:40.323Z,98370.59
2023-03-22T09:19:07.889Z,98382.03
2023-03-22T09:21:35.019Z,98366.06
2023-03-22T09:24:02.368Z,98371.81
2023-03-22T09:26:29.895Z,98364.41
2023-03-22T09:28:58.838Z,98361.66
2023-03-22T09:31:26.275Z,98359.06
2023-03-22T09:33:53.909Z,98347.44
2023-03-22T09:36:21.384Z,98358.22
2023-03-22T09:38:50.129Z,98351.03
2023-03-22T09:41:33.874Z,98347.78
2023-03-22T09:44:05.261Z,98348.97
2023-03-22T09:46:46.302Z,98352.78
2023-03-22T09:49:21.183Z,98346.44
2023-03-22T09:51:53.222Z,98349.38
2023-03-22T09:54:35.384Z,98344.06
2023-03-22T09:57:24.560Z,98343.44
2023-03-22T10:00:27.386Z,98338.97
2023-03-22T10:03:30.711Z,98342.44
2023-03-22T10:06:03.221Z,98334.19
2023-03-22T10:08:37.377Z,98333.19
2023-03-22T10:11:15.122Z,98333.09
2023-03-22T10:13:54.746Z,98323.22
2023-03-22T10:16:33.635Z,98320.53
2023-03-22T10:19:24.030Z,98321.69
2023-03-22T10:21:53.535Z,98325.28
2023-03-22T10:24:29.091Z,98317.00
2023-03-22T10:26:56.714Z,98317.31
2023-03-22T10:29:29.869Z,98309.75
2023-03-22T10:32:10.700Z,98315.91
2023-03-22T10:34:37.959Z,98306.56
2023-03-22T10:37:06.479Z,98295.19
2023-03-22T10:39:40.041Z,98305.25
2023-03-22T10:42:16.890Z,98293.84
2023-03-22T10:44:50.970Z,98293.31
2023-03-22T10:47:25.018Z,98298.00
2023-03-22T10:49:56.506Z,98300.31
2023-03-22T10:52:39.579Z,98297.66
2023-03-22T10:55:12.675Z,98293.38
2023-03-22T10:57:41.126Z,98287.03
2023-03-22T11:00:12.866Z,98298.03
2023-03-22T11:02:48.454Z,98301.34
2023-03-22T11:05:25.429Z,98292.03
2023-03-22T11:07:53.926Z,98299.91
2023-03-22T11:10:24.831Z,98292.03
2023-03-22T11:12:55.150Z,98293.59
2023-03-22T11:15:27.522Z,98292.19
2023-03-22T11:18:00.689Z,98286.34
2023-03-22T11:20:29.936Z,98287.06
2023-03-22T11:23:02.791Z,98279.66
2023-03-22T11:25:34.930Z,98276.06
2023-03-22T11:28:05.460Z,98287.19
2023-03-22T11:30:34.034Z,98277.31
2023-03-22T11:33:17.110Z,98264.25
2023-03-22T11:35:47.174Z,98263.63
2023-03-22T11:38:37.415Z,98261.06
2023-03-22T11:41:31.334Z,98259.78
2023-03-22T11:44:13.169Z,98257.56
2023-03-22T11:46:50.211Z,98258.94
2023-03-22T11:49:18.278Z,98258.16
2023-03-22T11:51:46.168Z,98250.47
2023-03-22T11:54:24.437Z,98254.69
2023-03-22T11:56:52.432Z,98239.56
2023-03-22T11:59:28.981Z,98241.41
2023-03-22T12:02:17.356Z,98242.03
2023-03-22T12:04:48.310Z,98238.41
2023-03-22T12:07:22.064Z,98243.16
2023-03-22T12:09:57.886Z,98244.38
2023-03-22T12:12:40.365Z,98235.25
2023-03-22T12:15:22.105Z,98240.84
2023-03-22T12:18:12.405Z,98230.81
2023-03-22T12:20:50.924Z,98230.25
2023-03-22T12:23:21.184Z,98231.91
2023-03-22T12:26:26.696Z,98227.97
2023-03-22T12:28:57.001Z,98222.84
2023-03-22T12:31:46.636Z,98220.03
2023-03-22T12:34:19.976Z,98218.38
2023-03-22T12:36:57.030Z,98206.22
2023-03-22T12:39:35.456Z,98216.84
2023-03-22T12:42:34.979Z,98210.22
2023-03-22T12:45:12.373Z,98209.09
2023-03-22T12:47:47.183Z,98210.78
2023-03-22T12:50:26.192Z,98206.25
2023-03-22T12:52:56.734Z,98209.78
2023-03-22T12:55:31.193Z,98210.41
2023-03-22T12:57:59.124Z,98203.44
2023-03-22T13:00:47.546Z,98207.91
2023-03-22T13:03:19.036Z,98206.38
2023-03-22T13:05:48.745Z,98208.06
2023-03-22T13:08:22.513Z,98196.38
2023-03-22T13:11:03.328Z,98195.22
2023-03-22T13:13:42.640Z,98189.25
2023-03-22T13:16:09.881Z,98179.66
2023-03-22T13:18:40.387Z,98177.47
2023-03-22T13:21:16.680Z,98184.59
2023-03-22T13:24:15.798Z,98189.41
2023-03-22T13:26:54.178Z,98177.97
2023-03-22T13:29:43.189Z,98172.03
2023-03-22T13:32:33.659Z,98167.59
2023-03-22T13:35:01.702Z,98168.06
2023-03-22T13:37:45.413Z,98166.09
2023-03-22T13:40:37.902Z,98159.47
2023-03-22T13:43:51.786Z,98161.78
2023-03-22T13:46:22.161Z,98158.28
2023-03-22T13:48:52.719Z,98157.16
2023-03-22T13:51:23.534Z,98153.66
2023-03-22T13:54:03.752Z,98144.91
2023-03-22T13:56:45.738Z,98145.84
2023-03-22T13:59:19.385Z,98141.22
2023-03-22T14:02:09.460Z,98144.38
2023-03-22T14:04:49.830Z,98134.94
2023-03-22T14:07:49.474Z,98135.75
2023-03-22T14:10:28.889Z,98134.44
2023-03-22T14:13:10.819Z,98131.63
2023-03-22T14:15:41.723Z,98130.78
2023-03-22T14:18:29.550Z,98135.94
2023-03-22T14:21:00.662Z,98124.69
